Time,TemperatureF,DewpointF,PressureIn,WindDirection,WindDirectionDegrees,WindSpeedMPH,WindSpeedGustMPH,Humidity,HourlyPrecipIn,Conditions,Clouds,dailyrainin,SoftwareType,DateUTC
2013-01-11 00:03:00,76.0,70.0,30.22,ENE,71,12.0,19.0,83,0.00,,,0.00,,2013-01-11 05:03:00,
2013-01-11 00:13:00,76.0,70.0,30.22,ENE,71,12.0,19.0,83,0.00,,,0.00,,2013-01-11 05:13:00,
2013-01-11 00:23:00,76.0,70.0,30.21,ENE,68,15.0,21.0,82,0.00,,,0.00,,2013-01-11 05:23:00,
2013-01-11 00:33:00,76.0,70.0,30.21,ENE,78,14.0,22.0,82,0.00,,,0.00,,2013-01-11 05:33:00,
2013-01-11 00:43:00,76.0,70.0,30.21,ENE,78,14.0,22.0,82,0.00,,,0.00,,2013-01-11 05:43:00,
2013-01-11 00:53:00,76.0,70.0,30.21,NE,55,12.0,23.0,81,0.00,,,0.00,,2013-01-11 05:53:00,
2013-01-11 01:03:00,76.0,69.0,30.21,ENE,60,12.0,22.0,80,0.00,,,0.00,,2013-01-11 06:03:00,
2013-01-11 01:12:00,76.0,69.0,30.21,ENE,60,12.0,22.0,80,0.00,,,0.00,,2013-01-11 06:12:00,
2013-01-11 01:22:00,76.0,70.0,30.21,East,87,11.0,22.0,81,0.00,,,0.00,,2013-01-11 06:22:00,
2013-01-11 01:32:00,76.0,70.0,30.22,East,100,12.0,23.0,81,0.00,,,0.00,,2013-01-11 06:32:00,
2013-01-11 01:42:00,76.0,70.0,30.22,East,100,12.0,23.0,81,0.00,,,0.00,,2013-01-11 06:42:00,
2013-01-11 01:52:00,76.0,70.0,30.22,East,83,11.0,21.0,81,0.00,,,0.00,,2013-01-11 06:52:00,
2013-01-11 02:02:00,76.0,69.0,30.21,ENE,64,11.0,19.0,80,0.00,,,0.00,,2013-01-11 07:02:00,
2013-01-11 02:12:00,76.0,69.0,30.21,ENE,64,11.0,19.0,80,0.00,,,0.00,,2013-01-11 07:12:00,
2013-01-11 02:22:00,76.0,70.0,30.21,ESE,103,10.0,19.0,81,0.00,,,0.00,,2013-01-11 07:22:00,
2013-01-11 02:32:00,76.0,69.0,30.21,East,97,10.0,17.0,80,0.00,,,0.00,,2013-01-11 07:32:00,
2013-01-11 02:42:00,76.0,69.0,30.20,ENE,76,12.0,21.0,79,0.00,,,0.00,,2013-01-11 07:42:00,
2013-01-11 02:52:00,76.0,69.0,30.20,ENE,76,12.0,21.0,79,0.00,,,0.00,,2013-01-11 07:52:00,
2013-01-11 03:02:00,76.0,69.0,30.19,ENE,66,10.0,18.0,78,0.00,,,0.00,,2013-01-11 08:02:00,
2013-01-11 03:12:00,76.0,68.0,30.19,East,79,13.0,19.0,76,0.00,,,0.00,,2013-01-11 08:12:00,
2013-01-11 03:22:00,76.0,68.0,30.19,East,79,13.0,19.0,76,0.00,,,0.00,,2013-01-11 08:22:00,
2013-01-11 03:32:00,76.0,67.0,30.19,ESE,114,11.0,22.0,75,0.00,,,0.00,,2013-01-11 08:32:00,
2013-01-11 03:42:00,76.0,67.0,30.19,ESE,114,11.0,22.0,75,0.00,,,0.00,,2013-01-11 08:42:00,
2013-01-11 03:53:00,76.0,66.0,30.18,ENE,72,13.0,22.0,72,0.00,,,0.00,,2013-01-11 08:53:00,
2013-01-11 04:02:00,76.0,66.0,30.17,East,81,8.0,17.0,71,0.00,,,0.00,,2013-01-11 09:02:00,
2013-01-11 04:12:00,76.0,66.0,30.17,East,81,8.0,17.0,71,0.00,,,0.00,,2013-01-11 09:12:00,
2013-01-11 04:23:00,76.0,65.0,30.16,East,88,14.0,22.0,70,0.00,,,0.00,,2013-01-11 09:23:00,
2013-01-11 04:32:00,76.0,66.0,30.16,East,80,13.0,22.0,72,0.00,,,0.00,,2013-01-11 09:32:00,
2013-01-11 04:42:00,76.0,66.0,30.16,East,80,13.0,22.0,72,0.00,,,0.00,,2013-01-11 09:42:00,
2013-01-11 04:52:00,75.0,66.0,30.15,East,88,13.0,22.0,73,0.00,,,0.00,,2013-01-11 09:52:00,
2013-01-11 05:02:00,75.0,66.0,30.16,ENE,76,11.0,21.0,74,0.00,,,0.00,,2013-01-11 10:02:00,
2013-01-11 05:12:00,75.0,66.0,30.16,ENE,76,11.0,21.0,74,0.00,,,0.00,,2013-01-11 10:12:00,
2013-01-11 05:22:00,75.0,67.0,30.16,East,86,15.0,22.0,75,0.00,,,0.00,,2013-01-11 10:22:00,
2013-01-11 05:32:00,75.0,67.0,30.15,ESE,114,11.0,21.0,75,0.00,,,0.00,,2013-01-11 10:32:00,
2013-01-11 05:42:00,75.0,67.0,30.15,ESE,114,11.0,21.0,75,0.00,,,0.00,,2013-01-11 10:42:00,
2013-01-11 05:53:00,75.0,67.0,30.16,ESE,105,11.0,19.0,75,0.00,,,0.00,,2013-01-11 10:53:00,
2013-01-11 06:03:00,75.0,67.0,30.15,ENE,72,9.0,18.0,75,0.00,,,0.00,,2013-01-11 11:03:00,
2013-01-11 06:12:00,75.0,67.0,30.15,ENE,72,9.0,18.0,75,0.00,,,0.00,,2013-01-11 11:12:00,
2013-01-11 06:22:00,75.0,66.0,30.15,East,96,10.0,18.0,74,0.00,,,0.00,,2013-01-11 11:22:00,
2013-01-11 06:33:00,75.0,66.0,30.16,ESE,112,10.0,15.0,74,0.00,,,0.00,,2013-01-11 11:33:00,
2013-01-11 06:43:00,75.0,66.0,30.16,ESE,112,10.0,15.0,74,0.00,,,0.00,,2013-01-11 11:43:00,
2013-01-11 06:53:00,75.0,67.0,30.16,ENE,73,13.0,17.0,76,0.00,,,0.00,,2013-01-11 11:53:00,
2013-01-11 07:03:00,75.0,67.0,30.16,East,81,12.0,19.0,76,0.00,,,0.00,,2013-01-11 12:03:00,
2013-01-11 07:12:00,75.0,67.0,30.16,East,81,12.0,19.0,76,0.00,,,0.00,,2013-01-11 12:12:00,
2013-01-11 07:22:00,75.0,67.0,30.16,ESE,103,12.0,17.0,76,0.00,,,0.00,,2013-01-11 12:22:00,
2013-01-11 07:33:00,75.0,67.0,30.16,East,88,11.0,18.0,77,0.00,,,0.00,,2013-01-11 12:33:00,
2013-01-11 07:43:00,75.0,67.0,30.16,East,88,11.0,18.0,77,0.00,,,0.00,,2013-01-11 12:43:00,
2013-01-11 07:53:00,75.0,67.0,30.16,East,85,11.0,17.0,77,0.00,,,0.00,,2013-01-11 12:53:00,
2013-01-11 08:03:00,75.0,67.0,30.16,East,91,9.0,18.0,76,0.00,,,0.00,,2013-01-11 13:03:00,
2013-01-11 08:13:00,75.0,67.0,30.16,East,91,9.0,18.0,76,0.00,,,0.00,,2013-01-11 13:13:00,
2013-01-11 08:22:00,76.0,68.0,30.16,ESE,106,12.0,21.0,76,0.00,,,0.00,,2013-01-11 13:22:00,
2013-01-11 08:33:00,76.0,68.0,30.17,ENE,78,12.0,17.0,76,0.00,,,0.00,,2013-01-11 13:33:00,
2013-01-11 08:43:00,76.0,68.0,30.17,ENE,78,12.0,17.0,76,0.00,,,0.00,,2013-01-11 13:43:00,
2013-01-11 08:53:00,76.0,67.0,30.17,East,91,12.0,17.0,74,0.00,,,0.00,,2013-01-11 13:53:00,
2013-01-11 09:03:00,77.0,67.0,30.18,ESE,118,12.0,18.0,72,0.00,,,0.00,,2013-01-11 14:03:00,
2013-01-11 09:12:00,77.0,67.0,30.18,ESE,118,12.0,18.0,72,0.00,,,0.00,,2013-01-11 14:12:00,
2013-01-11 09:23:00,78.0,67.0,30.18,ENE,66,11.0,16.0,69,0.00,,,0.00,,2013-01-11 14:23:00,
2013-01-11 09:33:00,77.0,66.0,30.18,East,90,11.0,16.0,69,0.00,,,0.00,,2013-01-11 14:33:00,
2013-01-11 09:43:00,78.0,65.0,30.18,ENE,62,12.0,17.0,65,0.00,,,0.00,,2013-01-11 14:43:00,
2013-01-11 09:53:00,78.0,65.0,30.18,ENE,62,12.0,17.0,65,0.00,,,0.00,,2013-01-11 14:53:00,
2013-01-11 10:03:00,78.0,65.0,30.19,East,97,9.0,16.0,64,0.00,,,0.00,,2013-01-11 15:03:00,
2013-01-11 10:13:00,79.0,66.0,30.19,ENE,74,7.0,15.0,64,0.00,,,0.00,,2013-01-11 15:13:00,
2013-01-11 10:23:00,79.0,66.0,30.19,ENE,74,7.0,15.0,64,0.00,,,0.00,,2013-01-11 15:23:00,
2013-01-11 10:33:00,79.0,66.0,30.19,East,85,9.0,15.0,64,0.00,,,0.00,,2013-01-11 15:33:00,
2013-01-11 10:43:00,79.0,66.0,30.19,East,85,9.0,15.0,64,0.00,,,0.00,,2013-01-11 15:43:00,
2013-01-11 10:53:00,79.0,64.0,30.18,East,82,10.0,16.0,61,0.00,,,0.00,,2013-01-11 15:53:00,
2013-01-11 11:03:00,79.0,64.0,30.18,East,81,9.0,16.0,61,0.00,,,0.00,,2013-01-11 16:03:00,
2013-01-11 11:12:00,79.0,64.0,30.18,East,87,11.0,15.0,60,0.00,,,0.00,,2013-01-11 16:12:00,
2013-01-11 11:23:00,79.0,64.0,30.18,East,87,11.0,15.0,60,0.00,,,0.00,,2013-01-11 16:23:00,
2013-01-11 11:33:00,79.0,63.0,30.18,East,83,9.0,13.0,59,0.00,,,0.00,,2013-01-11 16:33:00,
2013-01-11 11:43:00,79.0,63.0,30.18,East,83,9.0,13.0,59,0.00,,,0.00,,2013-01-11 16:43:00,
2013-01-11 11:53:00,80.0,66.0,30.17,East,82,7.0,11.0,62,0.00,,,0.00,,2013-01-11 16:53:00,
2013-01-11 12:03:00,80.0,66.0,30.17,NE,55,6.0,13.0,63,0.00,,,0.00,,2013-01-11 17:03:00,
2013-01-11 12:12:00,79.0,66.0,30.17,ENE,69,8.0,13.0,65,0.00,,,0.00,,2013-01-11 17:12:00,
2013-01-11 12:22:00,79.0,66.0,30.17,ENE,69,8.0,13.0,65,0.00,,,0.00,,2013-01-11 17:22:00,
2013-01-11 12:33:00,80.0,68.0,30.17,East,80,8.0,13.0,66,0.00,,,0.00,,2013-01-11 17:33:00,
2013-01-11 12:43:00,80.0,68.0,30.17,East,80,8.0,13.0,66,0.00,,,0.00,,2013-01-11 17:43:00,
2013-01-11 12:53:00,79.0,66.0,30.16,ESE,105,8.0,16.0,64,0.00,,,0.00,,2013-01-11 17:53:00,
2013-01-11 13:03:00,79.0,66.0,30.15,ENE,67,8.0,13.0,64,0.00,,,0.00,,2013-01-11 18:03:00,
2013-01-11 13:13:00,79.0,66.0,30.15,ENE,67,8.0,13.0,64,0.00,,,0.00,,2013-01-11 18:13:00,
2013-01-11 13:23:00,79.0,68.0,30.15,East,81,9.0,12.0,68,0.00,,,0.00,,2013-01-11 18:23:00,
2013-01-11 13:33:00,80.0,69.0,30.15,ENE,64,7.0,13.0,70,0.00,,,0.00,,2013-01-11 18:33:00,
2013-01-11 13:43:00,80.0,69.0,30.15,ENE,64,7.0,13.0,70,0.00,,,0.00,,2013-01-11 18:43:00,
2013-01-11 13:53:00,79.0,68.0,30.14,East,85,10.0,15.0,70,0.00,,,0.00,,2013-01-11 18:53:00,
2013-01-11 14:03:00,79.0,68.0,30.14,NE,47,8.0,14.0,70,0.00,,,0.00,,2013-01-11 19:03:00,
2013-01-11 14:12:00,79.0,68.0,30.14,NE,47,8.0,14.0,70,0.00,,,0.00,,2013-01-11 19:12:00,
2013-01-11 14:22:00,79.0,69.0,30.13,ENE,60,9.0,13.0,71,0.00,,,0.00,,2013-01-11 19:22:00,
2013-01-11 14:33:00,79.0,70.0,30.13,East,93,10.0,14.0,73,0.00,,,0.00,,2013-01-11 19:33:00,
2013-01-11 14:43:00,79.0,70.0,30.13,East,93,10.0,14.0,73,0.00,,,0.00,,2013-01-11 19:43:00,
2013-01-11 14:54:00,79.0,70.0,30.13,ENE,75,7.0,15.0,73,0.00,,,0.00,,2013-01-11 19:54:00,
2013-01-11 15:03:00,78.0,69.0,30.13,ENE,60,8.0,15.0,74,0.00,,,0.00,,2013-01-11 20:03:00,
2013-01-11 15:12:00,78.0,69.0,30.13,ENE,60,8.0,15.0,74,0.00,,,0.00,,2013-01-11 20:12:00,
2013-01-11 15:22:00,78.0,69.0,30.13,East,80,9.0,14.0,74,0.00,,,0.00,,2013-01-11 20:22:00,
2013-01-11 15:33:00,78.0,69.0,30.13,ENE,64,9.0,14.0,73,0.00,,,0.00,,2013-01-11 20:33:00,
2013-01-11 15:43:00,78.0,69.0,30.13,ENE,64,9.0,14.0,73,0.00,,,0.00,,2013-01-11 20:43:00,
2013-01-11 15:53:00,78.0,69.0,30.13,ENE,58,8.0,14.0,74,0.00,,,0.00,,2013-01-11 20:53:00,
2013-01-11 16:03:00,78.0,69.0,30.13,ENE,60,8.0,13.0,74,0.00,,,0.00,,2013-01-11 21:03:00,
2013-01-11 16:12:00,78.0,69.0,30.13,ENE,60,8.0,13.0,74,0.00,,,0.00,,2013-01-11 21:12:00,
2013-01-11 16:23:00,78.0,69.0,30.13,NE,39,10.0,14.0,75,0.00,,,0.00,,2013-01-11 21:23:00,
2013-01-11 16:33:00,78.0,69.0,30.12,NE,56,9.0,16.0,75,0.00,,,0.00,,2013-01-11 21:33:00,
2013-01-11 16:42:00,78.0,69.0,30.12,NE,56,9.0,16.0,75,0.00,,,0.00,,2013-01-11 21:42:00,
2013-01-11 16:53:00,77.0,68.0,30.12,NE,54,9.0,14.0,75,0.00,,,0.00,,2013-01-11 21:53:00,
2013-01-11 17:03:00,77.0,69.0,30.12,NNE,30,9.0,16.0,76,0.00,,,0.00,,2013-01-11 22:03:00,
2013-01-11 17:12:00,77.0,69.0,30.12,NNE,30,9.0,16.0,76,0.00,,,0.00,,2013-01-11 22:12:00,
2013-01-11 17:23:00,77.0,69.0,30.13,NE,46,10.0,14.0,76,0.00,,,0.00,,2013-01-11 22:23:00,
2013-01-11 17:33:00,76.0,68.0,30.13,ENE,65,10.0,16.0,76,0.00,,,0.00,,2013-01-11 22:33:00,
2013-01-11 17:42:00,76.0,68.0,30.13,ENE,65,10.0,16.0,76,0.00,,,0.00,,2013-01-11 22:42:00,
2013-01-11 17:53:00,76.0,68.0,30.12,NE,39,10.0,17.0,77,0.00,,,0.00,,2013-01-11 22:53:00,
2013-01-11 18:02:00,76.0,68.0,30.12,ENE,62,11.0,19.0,77,0.00,,,0.00,,2013-01-11 23:02:00,
2013-01-11 18:13:00,76.0,68.0,30.12,ENE,62,11.0,19.0,77,0.00,,,0.00,,2013-01-11 23:13:00,
2013-01-11 18:23:00,76.0,68.0,30.13,ENE,57,11.0,16.0,76,0.00,,,0.00,,2013-01-11 23:23:00,
2013-01-11 18:32:00,76.0,68.0,30.13,East,82,10.0,17.0,76,0.00,,,0.00,,2013-01-11 23:32:00,
2013-01-11 18:43:00,76.0,68.0,30.13,East,82,10.0,17.0,76,0.00,,,0.00,,2013-01-11 23:43:00,
2013-01-11 18:53:00,76.0,69.0,30.12,ENE,61,9.0,19.0,78,0.00,,,0.00,,2013-01-11 23:53:00,
2013-01-11 19:02:00,76.0,69.0,30.13,NE,52,9.0,15.0,78,0.00,,,0.00,,2013-01-12 00:02:00,
2013-01-11 19:12:00,76.0,69.0,30.13,ENE,63,10.0,18.0,79,0.00,,,0.00,,2013-01-12 00:12:00,
2013-01-11 19:23:00,76.0,69.0,30.13,ENE,63,10.0,18.0,79,0.00,,,0.00,,2013-01-12 00:23:00,
2013-01-11 19:33:00,76.0,69.0,30.13,NE,54,10.0,18.0,79,0.00,,,0.00,,2013-01-12 00:33:00,
2013-01-11 19:43:00,76.0,69.0,30.13,NE,54,10.0,18.0,79,0.00,,,0.00,,2013-01-12 00:43:00,
2013-01-11 19:53:00,76.0,70.0,30.13,NE,55,9.0,15.0,81,0.00,,,0.00,,2013-01-12 00:53:00,
2013-01-11 20:02:00,76.0,70.0,30.13,East,80,10.0,16.0,81,0.00,,,0.00,,2013-01-12 01:02:00,
2013-01-11 20:12:00,76.0,70.0,30.13,East,80,10.0,16.0,81,0.00,,,0.00,,2013-01-12 01:12:00,
2013-01-11 20:22:00,76.0,70.0,30.13,East,79,10.0,16.0,82,0.00,,,0.00,,2013-01-12 01:22:00,
2013-01-11 20:33:00,76.0,70.0,30.13,ENE,69,9.0,16.0,83,0.00,,,0.00,,2013-01-12 01:33:00,
2013-01-11 20:43:00,76.0,70.0,30.13,ENE,69,9.0,16.0,83,0.00,,,0.00,,2013-01-12 01:43:00,
2013-01-11 20:53:00,76.0,71.0,30.13,East,86,8.0,14.0,84,0.00,,,0.00,,2013-01-12 01:53:00,
2013-01-11 21:02:00,76.0,71.0,30.13,ENE,65,8.0,13.0,84,0.00,,,0.00,,2013-01-12 02:02:00,
2013-01-11 21:12:00,76.0,71.0,30.13,ENE,65,8.0,13.0,84,0.00,,,0.00,,2013-01-12 02:12:00,
2013-01-11 21:22:00,76.0,71.0,30.13,East,79,10.0,17.0,84,0.00,,,0.00,,2013-01-12 02:22:00,
2013-01-11 21:33:00,76.0,70.0,30.13,NE,43,10.0,15.0,83,0.00,,,0.00,,2013-01-12 02:33:00,
2013-01-11 21:43:00,76.0,70.0,30.13,NE,43,10.0,15.0,83,0.00,,,0.00,,2013-01-12 02:43:00,
2013-01-11 21:53:00,76.0,71.0,30.14,ENE,78,8.0,15.0,85,0.00,,,0.00,,2013-01-12 02:53:00,
2013-01-11 22:03:00,76.0,71.0,30.14,NE,47,9.0,15.0,85,0.00,,,0.00,,2013-01-12 03:03:00,
2013-01-11 22:12:00,76.0,71.0,30.14,NE,47,9.0,15.0,85,0.00,,,0.00,,2013-01-12 03:12:00,
2013-01-11 22:22:00,76.0,71.0,30.14,East,81,10.0,16.0,85,0.00,,,0.00,,2013-01-12 03:22:00,
2013-01-11 22:33:00,76.0,71.0,30.14,NE,56,10.0,15.0,85,0.00,,,0.00,,2013-01-12 03:33:00,
2013-01-11 22:43:00,76.0,71.0,30.14,NE,56,10.0,15.0,85,0.00,,,0.00,,2013-01-12 03:43:00,
2013-01-11 22:53:00,76.0,71.0,30.14,East,93,8.0,14.0,85,0.00,,,0.00,,2013-01-12 03:53:00,
2013-01-11 23:02:00,76.0,71.0,30.14,ENE,62,8.0,14.0,85,0.00,,,0.00,,2013-01-12 04:02:00,
2013-01-11 23:12:00,76.0,71.0,30.14,ENE,62,8.0,14.0,85,0.00,,,0.00,,2013-01-12 04:12:00,
2013-01-11 23:22:00,76.0,72.0,30.14,ENE,66,9.0,14.0,86,0.00,,,0.00,,2013-01-12 04:22:00,
2013-01-11 23:32:00,76.0,71.0,30.14,ENE,59,9.0,17.0,85,0.00,,,0.00,,2013-01-12 04:32:00,
2013-01-11 23:42:00,76.0,71.0,30.14,ENE,59,9.0,17.0,85,0.00,,,0.00,,2013-01-12 04:42:00,
2013-01-11 23:52:00,76.0,71.0,30.13,ESE,106,8.0,14.0,85,0.00,,,0.00,,2013-01-12 04:52:00,